BND95Q / G-MCSG 7700 Squawk Report (21st of February, 2018)

Time Lat Lon Altitude Heading Speed Vertical Rate
2018-02-21 13:05:54 GMT 57.192123 -2.190443 -50 336 51 -512
2018-02-21 13:05:48 GMT 57.190636 -2.189203 0 335 53 -384
2018-02-21 13:05:39 GMT 57.188690 -2.187567 75 334 61 -512
2018-02-21 13:05:29 GMT 57.185715 -2.184391 175 319 83 -448
2018-02-21 13:05:19 GMT 57.183327 -2.178394 275 290 106 -704
2018-02-21 13:05:11 GMT 57.182209 -2.170509 350 281 115 -448
2018-02-21 13:05:08 GMT 57.182053 -2.167997 375 277 122 -512
2018-02-21 13:05:05 GMT 57.181915 -2.165680 375 276 127 -384
2018-02-21 13:04:58 GMT 57.181511 -2.157573 425 276 131 -384
2018-02-21 13:04:48 GMT 57.180954 -2.146454 525 275 133 -512
2018-02-21 13:04:45 GMT 57.180817 -2.143106 550 276 131 0
2018-02-21 13:04:35 GMT 57.180252 -2.131348 575 276 130 64
2018-02-21 13:04:28 GMT 57.179901 -2.123537 575 275 130 0
2018-02-21 13:04:24 GMT 57.179718 -2.120190 575 276 130 -64
2018-02-21 13:04:17 GMT 57.179306 -2.112036 575 275 130 -64
2018-02-21 13:04:08 GMT 57.178802 -2.100534 575 275 129 0
2018-02-21 13:03:57 GMT 57.178299 -2.089706 575 275 129 0
2018-02-21 13:03:46 GMT 57.177750 -2.077875 575 276 129 0
2018-02-21 13:03:36 GMT 57.177040 -2.066847 575 278 129 0
2018-02-21 13:03:27 GMT 57.176285 -2.055988 575 278 129 0
2018-02-21 13:03:19 GMT 57.175644 -2.046647 575 278 129 0
2018-02-21 13:03:16 GMT 57.175507 -2.044830 575 278 129 0
2018-02-21 13:03:12 GMT 57.175133 -2.039470 575 278 129 0
2018-02-21 13:03:06 GMT 57.174774 -2.033844 575 277 129 0
We lost coverage of the aircraft here for a total of 98 minutes
2018-02-21 11:25:15 GMT 57.072510 -1.086788 2,575 109 143 0
2018-02-21 11:24:42 GMT 57.079559 -1.123180 2,575 109 143 0
2018-02-21 11:24:35 GMT 57.081097 -1.131060 2,575 109 143 0
2018-02-21 11:24:26 GMT 57.083099 -1.141426 2,575 109 143 0
2018-02-21 11:24:15 GMT 57.085648 -1.154594 2,575 109 144 0
2018-02-21 11:24:05 GMT 57.087753 -1.165409 2,575 109 144 -64
2018-02-21 11:23:55 GMT 57.089813 -1.176310 2,575 109 143 0
2018-02-21 11:23:44 GMT 57.092316 -1.189359 2,575 109 144 0
2018-02-21 11:23:31 GMT 57.095215 -1.204205 2,575 109 144 0
2018-02-21 11:23:23 GMT 57.097111 -1.214255 2,575 109 145 0
2018-02-21 11:23:15 GMT 57.098881 -1.223558 2,575 109 145 0
2018-02-21 11:23:04 GMT 57.101532 -1.237164 2,575 109 145 0
2018-02-21 11:22:51 GMT 57.104095 -1.250381 2,575 109 145 0
2018-02-21 11:22:44 GMT 57.105862 -1.259529 2,575 109 145 0
2018-02-21 11:22:23 GMT 57.110733 -1.284714 2,575 109 145 0
2018-02-21 11:22:11 GMT 57.113125 -1.296918 2,575 109 145 0
2018-02-21 11:22:03 GMT 57.115032 -1.306930 2,575 109 144 0
2018-02-21 11:21:52 GMT 57.117313 -1.318980 2,575 109 144 0
2018-02-21 11:21:43 GMT 57.119431 -1.329947 2,575 109 144 0
2018-02-21 11:21:31 GMT 57.122108 -1.343876 2,575 109 144 0
2018-02-21 11:20:56 GMT 57.129684 -1.383591 2,575 109 143 0
2018-02-21 11:20:51 GMT 57.130859 -1.389682 2,575 109 143 0
2018-02-21 11:20:41 GMT 57.133163 -1.401615 2,575 109 142 0
2018-02-21 11:20:31 GMT 57.135132 -1.411915 2,575 109 142 0
2018-02-21 11:20:19 GMT 57.137985 -1.426805 2,575 109 142 0
2018-02-21 11:20:04 GMT 57.141010 -1.442664 2,575 109 141 0
2018-02-21 11:19:59 GMT 57.142273 -1.449337 2,575 109 142 0
2018-02-21 11:19:35 GMT 57.147526 -1.476775 2,575 109 142 0
2018-02-21 11:19:30 GMT 57.148598 -1.482268 2,575 109 142 0
2018-02-21 11:19:19 GMT 57.151016 -1.494999 2,575 109 142 0
2018-02-21 11:19:09 GMT 57.153076 -1.505728 2,575 109 142 0
2018-02-21 11:19:00 GMT 57.155502 -1.518602 2,575 109 142 0
2018-02-21 11:18:49 GMT 57.157536 -1.529226 2,575 109 142 0
2018-02-21 11:18:39 GMT 57.159630 -1.540567 2,575 109 142 0
2018-02-21 11:18:28 GMT 57.161865 -1.552420 2,575 109 143 0
2018-02-21 11:18:19 GMT 57.164017 -1.563663 2,575 109 144 0
2018-02-21 11:18:09 GMT 57.166397 -1.576195 2,575 109 145 0
2018-02-21 11:17:57 GMT 57.168686 -1.588297 2,575 109 145 0
2018-02-21 11:17:47 GMT 57.171158 -1.601429 2,575 109 145 0
2018-02-21 11:17:37 GMT 57.173130 -1.611712 2,575 109 144 0
2018-02-21 11:17:28 GMT 57.175369 -1.623659 2,575 109 143 0
2018-02-21 11:17:17 GMT 57.177658 -1.635675 2,575 109 144 0
2018-02-21 11:17:07 GMT 57.179810 -1.647091 2,575 109 145 0
2018-02-21 11:16:56 GMT 57.182281 -1.660051 2,575 109 145 0
2018-02-21 11:16:46 GMT 57.184525 -1.671982 2,575 108 144 0
2018-02-21 11:16:36 GMT 57.186676 -1.683655 2,575 108 145 0
2018-02-21 11:16:25 GMT 57.188911 -1.695439 2,575 108 144 0
2018-02-21 11:16:15 GMT 57.191162 -1.707430 2,575 108 144 0
2018-02-21 11:16:06 GMT 57.193268 -1.718845 2,575 108 144 0
2018-02-21 11:15:55 GMT 57.195522 -1.730790 2,575 109 145 0
2018-02-21 11:15:45 GMT 57.197800 -1.742792 2,575 108 144 0
2018-02-21 11:15:34 GMT 57.200134 -1.755409 2,575 108 144 0
2018-02-21 11:15:25 GMT 57.202412 -1.767470 2,575 109 145 0
2018-02-21 11:15:13 GMT 57.204666 -1.779442 2,575 109 145 0
2018-02-21 11:15:03 GMT 57.206909 -1.791286 2,575 109 145 0
2018-02-21 11:14:53 GMT 57.209164 -1.803353 2,575 108 144 0
2018-02-21 11:14:48 GMT 57.210140 -1.808491 2,575 108 144 0
2018-02-21 11:14:43 GMT 57.211349 -1.814890 2,575 108 144 0
2018-02-21 11:14:37 GMT 57.212563 -1.821604 2,575 108 144 0
2018-02-21 11:14:31 GMT 57.213867 -1.828451 2,575 108 144 0
2018-02-21 11:14:23 GMT 57.215652 -1.838236 2,575 108 144 0
2018-02-21 11:14:12 GMT 57.217987 -1.850595 2,575 108 144 0
2018-02-21 11:14:03 GMT 57.220230 -1.862526 2,575 108 144 0
2018-02-21 11:13:52 GMT 57.222336 -1.873941 2,575 109 143 0
2018-02-21 11:13:41 GMT 57.224808 -1.886902 2,575 109 143 0
2018-02-21 11:13:31 GMT 57.226959 -1.898489 2,575 109 143 0
2018-02-21 11:13:28 GMT 57.227646 -1.902141 2,575 109 143 0
2018-02-21 11:13:19 GMT 57.229935 -1.914539 2,575 108 143 0
2018-02-21 11:13:11 GMT 57.231262 -1.921663 2,575 109 143 0
2018-02-21 11:13:07 GMT 57.232315 -1.927500 2,575 109 142 0
2018-02-21 11:13:02 GMT 57.233368 -1.933151 2,575 109 143 0
2018-02-21 11:12:57 GMT 57.234253 -1.937758 2,575 109 143 0
2018-02-21 11:12:51 GMT 57.235565 -1.944752 2,575 109 142 0
2018-02-21 11:12:45 GMT 57.237076 -1.952648 2,575 109 142 0
2018-02-21 11:12:41 GMT 57.237839 -1.956630 2,575 109 143 0
2018-02-21 11:12:37 GMT 57.238674 -1.961060 2,575 109 143 0
2018-02-21 11:12:31 GMT 57.240097 -1.968784 2,575 108 143 0
2018-02-21 11:12:28 GMT 57.240864 -1.972843 2,575 108 144 0
2018-02-21 11:12:21 GMT 57.242203 -1.980200 2,575 107 144 0
2018-02-21 11:12:17 GMT 57.242844 -1.983976 2,575 107 144 0
2018-02-21 11:12:09 GMT 57.244400 -1.993675 2,575 106 144 0
2018-02-21 11:12:05 GMT 57.245193 -1.998537 2,575 106 144 0
2018-02-21 11:12:00 GMT 57.246220 -2.005625 2,575 104 144 0
2018-02-21 11:11:54 GMT 57.246918 -2.010852 2,575 102 144 0
2018-02-21 11:11:49 GMT 57.247616 -2.017852 2,575 99 143 0
2018-02-21 11:11:44 GMT 57.248032 -2.023168 2,575 98 143 0
2018-02-21 11:11:39 GMT 57.248611 -2.029896 2,575 98 143 0
2018-02-21 11:11:35 GMT 57.248978 -2.034187 2,575 98 143 0
2018-02-21 11:11:28 GMT 57.249710 -2.042837 2,575 98 142 0
2018-02-21 11:11:24 GMT 57.250122 -2.047491 2,575 98 142 0
2018-02-21 11:11:19 GMT 57.250732 -2.054886 2,575 98 142 0
2018-02-21 11:11:15 GMT 57.251060 -2.058696 2,575 98 142 0
2018-02-21 11:11:08 GMT 57.251816 -2.067490 2,575 98 141 0
2018-02-21 11:11:04 GMT 57.252129 -2.071454 2,575 98 141 -64
2018-02-21 11:10:57 GMT 57.252827 -2.080314 2,575 98 141 0
2018-02-21 11:10:54 GMT 57.253109 -2.083415 2,575 98 141 64
2018-02-21 11:10:48 GMT 57.253712 -2.091212 2,575 98 140 64
2018-02-21 11:10:44 GMT 57.254059 -2.095642 2,575 98 138 0
2018-02-21 11:10:38 GMT 57.254654 -2.103024 2,550 98 135 64
2018-02-21 11:10:33 GMT 57.255016 -2.107957 2,550 97 132 64
2018-02-21 11:10:28 GMT 57.255569 -2.115297 2,550 97 127 128
2018-02-21 11:10:23 GMT 57.255798 -2.119160 2,550 97 123 320
2018-02-21 11:10:17 GMT 57.256302 -2.126112 2,500 97 118 896
2018-02-21 11:10:13 GMT 57.256554 -2.129664 2,425 97 117 960
2018-02-21 11:10:07 GMT 57.257019 -2.135512 2,325 97 115 960
2018-02-21 11:10:00 GMT 57.257401 -2.142506 2,225 94 115 1024
2018-02-21 11:09:56 GMT 57.257217 -2.146025 2,150 77 115 1024
2018-02-21 11:09:52 GMT 57.256531 -2.150145 2,075 61 115 960
2018-02-21 11:09:46 GMT 57.254688 -2.155092 1,975 42 116 960
2018-02-21 11:09:41 GMT 57.252876 -2.157927 1,900 36 115 960
2018-02-21 11:09:36 GMT 57.250595 -2.161117 1,800 36 115 960
2018-02-21 11:09:31 GMT 57.248638 -2.163775 1,725 36 114 960
2018-02-21 11:09:26 GMT 57.246231 -2.167139 1,625 36 113 960
2018-02-21 11:09:20 GMT 57.244076 -2.170066 1,550 36 113 960
2018-02-21 11:09:15 GMT 57.242020 -2.172890 1,475 36 112 960
2018-02-21 11:09:09 GMT 57.239468 -2.176356 1,375 36 111 960
2018-02-21 11:09:05 GMT 57.237560 -2.178926 1,300 36 110 960
2018-02-21 11:09:00 GMT 57.235565 -2.181644 1,200 36 110 960
2018-02-21 11:08:55 GMT 57.233463 -2.184507 1,125 36 109 960
2018-02-21 11:08:49 GMT 57.231308 -2.187395 1,025 36 108 960
2018-02-21 11:08:44 GMT 57.228973 -2.190571 950 36 107 960
2018-02-21 11:08:39 GMT 57.227234 -2.192888 875 36 105 1024
2018-02-21 11:08:33 GMT 57.224854 -2.196236 750 37 103 960
2018-02-21 11:08:28 GMT 57.223175 -2.198683 675 37 102 960
2018-02-21 11:08:25 GMT 57.221420 -2.201128 600 37 100 960
2018-02-21 11:08:18 GMT 57.219315 -2.203960 500 23 96 896

Making use of Plane Finder data

You are free to use the raw flight data, aircraft information and images provided in this report for your own purposes provided the data is correctly attributed to Plane Finder. We ask that you please credit Plane Finder and link to planefinder.net in close proximity to the content.

Optionally one of the following logos (no smaller then 150x24px) can be used and must link to planefinder.net

Embedding the Plane Finder map

You are welcome to embed the Plane Finder playback map on your website to offer visitors a more interactive experience. We suggest using the following HTML code:

<iframe src="//planefinder.net/data/report/BND95Q-G-MCSG-7700-squawk-2018-02-21/map" width="800" height="600" seamless="seamless"></iframe>

Where our data comes from

Plane Finder has a global network of data feeds and antenna radars that receive data broadcast directly from aircraft. The primary technologies used are ADS-B and MLAT. We also show feeds from the FAA and a FLARM glider feed.

Click here to find out more about the Plane Finder network.

How we collect our data